createdAt,value
2018-06-30T00:02:19.000Z,101301.42
2018-06-30T00:04:50.098Z,101248.20
2018-06-30T00:07:17.197Z,101299.79
2018-06-30T00:09:44.252Z,101303.66
2018-06-30T00:12:11.567Z,101306.12
2018-06-30T00:14:38.630Z,101302.11
2018-06-30T00:17:05.667Z,101306.23
2018-06-30T00:19:32.682Z,101308.02
2018-06-30T00:21:59.821Z,101311.56
2018-06-30T00:24:26.886Z,101312.45
2018-06-30T00:26:59.783Z,101309.39
2018-06-30T00:29:26.819Z,101309.08
2018-06-30T00:31:53.821Z,101307.81
2018-06-30T00:34:20.837Z,101314.47
2018-06-30T00:36:47.927Z,101310.44
2018-06-30T00:39:14.948Z,101313.80
2018-06-30T00:41:41.985Z,101312.87
2018-06-30T00:44:09.132Z,101315.23
2018-06-30T00:46:36.167Z,101321.09
2018-06-30T00:49:03.337Z,101321.02
2018-06-30T00:51:30.368Z,101324.32
2018-06-30T00:53:57.464Z,101323.79
2018-06-30T00:56:24.508Z,101330.25
2018-06-30T00:58:52.057Z,101330.03
2018-06-30T01:01:19.128Z,101331.58
2018-06-30T01:03:46.162Z,101333.64
2018-06-30T01:06:13.189Z,101335.59
2018-06-30T01:08:40.202Z,101333.48
2018-06-30T01:11:07.325Z,101331.77
2018-06-30T01:13:34.350Z,101336.00
2018-06-30T01:16:01.532Z,101334.16
2018-06-30T01:18:28.638Z,101328.83
2018-06-30T01:20:55.651Z,101336.99
2018-06-30T01:23:22.766Z,101333.59
2018-06-30T01:25:49.863Z,101336.97
2018-06-30T01:28:17.040Z,101334.50
2018-06-30T01:30:44.139Z,101340.66
2018-06-30T01:33:11.166Z,101344.73
2018-06-30T01:35:38.590Z,101342.61
2018-06-30T01:38:05.594Z,101342.05
2018-06-30T01:40:32.678Z,101335.14
2018-06-30T01:43:00.093Z,101345.22
2018-06-30T01:45:27.189Z,101346.28
2018-06-30T01:48:04.942Z,101343.66
2018-06-30T01:50:31.974Z,101340.83
2018-06-30T01:52:59.060Z,101343.14
2018-06-30T01:55:26.370Z,101339.33
2018-06-30T01:57:53.453Z,101344.09
2018-06-30T02:00:20.848Z,101340.90
2018-06-30T02:02:48.149Z,101346.28
2018-06-30T02:05:15.226Z,101350.12
2018-06-30T02:07:42.335Z,101349.45
2018-06-30T02:10:09.544Z,101347.84
2018-06-30T02:12:36.547Z,101350.38
2018-06-30T02:15:03.965Z,101350.66
2018-06-30T02:17:30.998Z,101357.22
2018-06-30T02:19:58.125Z,101354.69
2018-06-30T02:22:25.138Z,101352.34
2018-06-30T02:24:52.178Z,101356.69
2018-06-30T02:27:19.326Z,101352.78
2018-06-30T02:29:46.336Z,101355.33
2018-06-30T02:32:13.729Z,101356.08
2018-06-30T02:34:40.748Z,101360.65
2018-06-30T02:37:07.771Z,101359.98
2018-06-30T02:39:34.801Z,101362.53
2018-06-30T02:42:01.917Z,101367.27
2018-06-30T02:44:29.013Z,101366.77
2018-06-30T02:46:56.017Z,101372.03
2018-06-30T02:49:23.066Z,101380.26
2018-06-30T02:51:50.171Z,101381.00
2018-06-30T02:54:17.255Z,101382.26
2018-06-30T02:56:44.497Z,101382.63
2018-06-30T02:59:11.583Z,101384.25
2018-06-30T03:01:38.601Z,101379.88
2018-06-30T03:04:05.664Z,101384.72
2018-06-30T03:06:32.673Z,101388.92
2018-06-30T03:08:59.665Z,101381.84
2018-06-30T03:11:26.674Z,101385.38
2018-06-30T03:13:53.759Z,101384.88
2018-06-30T03:16:20.875Z,101382.03
2018-06-30T03:18:48.437Z,101388.83
2018-06-30T03:21:15.567Z,101398.60
2018-06-30T03:23:42.695Z,101393.70
2018-06-30T03:26:10.193Z,101394.59
2018-06-30T03:28:37.192Z,101390.14
2018-06-30T03:31:04.308Z,101394.01
2018-06-30T03:33:31.370Z,101395.02
2018-06-30T03:35:58.409Z,101385.73
2018-06-30T03:38:25.443Z,101395.25
2018-06-30T03:40:52.469Z,101392.73
2018-06-30T03:43:19.632Z,101395.25
2018-06-30T03:45:46.620Z,101403.25
2018-06-30T03:48:13.798Z,101393.95
2018-06-30T03:50:40.944Z,101401.81
2018-06-30T03:53:07.934Z,101399.23
2018-06-30T03:55:34.956Z,101402.70
2018-06-30T03:58:01.977Z,101403.22
2018-06-30T04:00:29.058Z,101405.63
2018-06-30T04:02:56.235Z,101398.03
2018-06-30T04:05:23.444Z,101400.37
2018-06-30T04:07:50.808Z,101406.20
2018-06-30T04:10:18.029Z,101400.88
2018-06-30T04:12:45.089Z,101408.17
2018-06-30T04:15:12.125Z,101403.69
2018-06-30T04:17:39.172Z,101407.27
2018-06-30T04:20:06.222Z,101405.72
2018-06-30T04:22:33.285Z,101402.53
2018-06-30T04:25:00.321Z,101411.03
2018-06-30T04:27:27.370Z,101416.64
2018-06-30T04:29:54.356Z,101415.88
2018-06-30T04:32:21.405Z,101412.13
2018-06-30T04:34:48.430Z,101420.40
2018-06-30T04:37:15.460Z,101417.84
2018-06-30T04:39:42.502Z,101419.20
2018-06-30T04:42:09.514Z,101420.42
2018-06-30T04:44:36.533Z,101421.22
2018-06-30T04:47:03.684Z,101422.22
2018-06-30T04:49:30.714Z,101428.36
2018-06-30T04:51:57.717Z,101425.44
2018-06-30T04:54:24.764Z,101428.78
2018-06-30T04:59:25.969Z,101432.25
2018-06-30T05:01:53.076Z,101431.62
2018-06-30T05:04:20.677Z,101435.37
2018-06-30T05:06:47.802Z,101431.00
2018-06-30T05:09:14.825Z,101426.86
2018-06-30T05:11:41.846Z,101434.23
2018-06-30T05:14:08.842Z,101429.52
2018-06-30T05:16:35.876Z,101432.05
2018-06-30T05:19:02.961Z,101428.08
2018-06-30T05:21:29.988Z,101429.02
2018-06-30T05:23:57.008Z,101432.69
2018-06-30T05:26:24.036Z,101435.64
2018-06-30T05:28:51.070Z,101432.92
2018-06-30T05:31:18.417Z,101437.89
2018-06-30T05:33:45.538Z,101444.11
2018-06-30T05:36:12.560Z,101444.28
2018-06-30T05:38:40.440Z,101445.95
2018-06-30T05:41:07.718Z,101439.95
2018-06-30T05:43:34.697Z,101445.64
2018-06-30T05:46:01.744Z,101445.76
2018-06-30T05:48:28.799Z,101451.36
2018-06-30T05:50:55.842Z,101455.31
2018-06-30T05:53:22.894Z,101455.33
2018-06-30T05:55:49.941Z,101448.52
2018-06-30T05:58:16.984Z,101448.27
2018-06-30T06:00:44.245Z,101454.03
2018-06-30T06:03:11.572Z,101459.98
2018-06-30T06:05:38.603Z,101460.45
2018-06-30T06:08:05.645Z,101458.94
2018-06-30T06:10:32.666Z,101463.36
2018-06-30T06:12:59.746Z,101461.47
2018-06-30T06:15:27.242Z,101464.84
2018-06-30T06:17:54.233Z,101461.04
2018-06-30T06:20:21.273Z,101458.06
2018-06-30T06:22:48.333Z,101467.39
2018-06-30T06:25:15.374Z,101467.45
2018-06-30T06:27:42.392Z,101465.56
2018-06-30T06:30:09.681Z,101464.95
2018-06-30T06:32:37.108Z,101469.52
2018-06-30T06:35:04.285Z,101469.37
2018-06-30T06:37:31.309Z,101472.57
2018-06-30T06:39:58.343Z,101466.93
2018-06-30T06:42:25.401Z,101464.02
2018-06-30T06:44:52.430Z,101466.84
2018-06-30T06:47:19.450Z,101467.16
2018-06-30T06:49:46.489Z,101467.63
2018-06-30T06:52:13.537Z,101468.06
2018-06-30T06:54:40.588Z,101468.03
2018-06-30T06:57:07.634Z,101468.34
2018-06-30T06:59:34.658Z,101463.45
2018-06-30T07:02:01.721Z,101466.41
2018-06-30T07:04:29.265Z,101463.05
2018-06-30T07:06:56.428Z,101463.47
2018-06-30T07:09:23.448Z,101464.80
2018-06-30T07:11:51.035Z,101460.39
2018-06-30T07:14:18.227Z,101460.58
2018-06-30T07:16:45.329Z,101465.80
2018-06-30T07:19:12.465Z,101459.03
2018-06-30T07:21:39.454Z,101461.11
2018-06-30T07:24:06.690Z,101457.75
2018-06-30T07:26:34.266Z,101469.05
2018-06-30T07:29:01.269Z,101459.63
2018-06-30T07:31:28.744Z,101454.44
2018-06-30T07:33:56.240Z,101458.77
2018-06-30T07:36:23.594Z,101464.19
2018-06-30T07:38:51.444Z,101462.09
2018-06-30T07:41:18.544Z,101463.91
2018-06-30T07:43:45.763Z,101466.77
2018-06-30T07:46:13.060Z,101469.52
2018-06-30T07:48:40.209Z,101473.80
2018-06-30T07:51:07.961Z,101470.87
2018-06-30T07:53:35.022Z,101474.96
2018-06-30T07:56:02.069Z,101466.69
2018-06-30T07:58:29.165Z,101467.84
2018-06-30T08:00:56.160Z,101468.91
2018-06-30T08:03:23.232Z,101474.36
2018-06-30T08:05:50.745Z,101476.36
2018-06-30T08:08:17.818Z,101468.60
2018-06-30T08:10:45.549Z,101472.66
2018-06-30T08:13:12.618Z,101472.77
2018-06-30T08:15:39.955Z,101474.94
2018-06-30T08:18:07.428Z,101480.86
2018-06-30T08:20:34.912Z,101482.15
2018-06-30T08:23:03.283Z,101425.95
2018-06-30T08:25:30.356Z,101476.91
2018-06-30T08:27:57.550Z,101479.46
2018-06-30T08:30:24.758Z,101476.20
2018-06-30T08:32:51.941Z,101474.91
2018-06-30T08:35:19.280Z,101478.98
2018-06-30T08:37:46.294Z,101478.88
2018-06-30T08:40:13.325Z,101482.09
2018-06-30T08:42:40.660Z,101477.37
2018-06-30T08:45:07.785Z,101480.03
2018-06-30T08:47:35.115Z,101479.95
2018-06-30T08:50:02.462Z,101485.50
2018-06-30T08:52:29.610Z,101478.59
2018-06-30T08:54:56.974Z,101482.02
2018-06-30T08:57:24.407Z,101484.17
2018-06-30T08:59:51.443Z,101489.53
2018-06-30T09:02:18.573Z,101484.02
2018-06-30T09:04:45.605Z,101483.09
2018-06-30T09:07:12.712Z,101482.33
2018-06-30T09:09:40.112Z,101476.64
2018-06-30T09:12:07.142Z,101468.16
2018-06-30T09:14:34.433Z,101479.91
2018-06-30T09:17:01.437Z,101474.02
2018-06-30T09:19:28.473Z,101482.36
2018-06-30T09:21:55.501Z,101488.39
2018-06-30T09:24:22.499Z,101481.91
2018-06-30T09:26:49.500Z,101474.12
2018-06-30T09:29:16.596Z,101475.03
2018-06-30T09:31:43.605Z,101475.81
2018-06-30T09:34:10.819Z,101471.22
2018-06-30T09:36:37.830Z,101468.83
2018-06-30T09:39:07.074Z,101472.56
2018-06-30T09:41:34.174Z,101469.72
2018-06-30T09:44:01.205Z,101478.94
2018-06-30T09:46:28.207Z,101470.16
2018-06-30T09:48:55.329Z,101476.48
2018-06-30T09:51:22.352Z,101471.06
2018-06-30T09:53:49.373Z,101471.13
2018-06-30T09:56:16.529Z,101463.87
2018-06-30T09:58:43.632Z,101470.23
2018-06-30T10:01:10.646Z,101461.28
2018-06-30T10:03:38.344Z,101473.23
2018-06-30T10:06:05.577Z,101465.42
2018-06-30T10:08:32.584Z,101463.78
2018-06-30T10:10:59.646Z,101464.73
2018-06-30T10:13:26.690Z,101454.58
2018-06-30T10:15:53.913Z,101456.88
2018-06-30T10:18:20.933Z,101452.95
2018-06-30T10:20:48.240Z,101455.53
2018-06-30T10:23:15.225Z,101460.27
2018-06-30T10:25:42.273Z,101459.83
2018-06-30T10:28:09.737Z,101464.59
2018-06-30T10:30:37.502Z,101457.55
2018-06-30T10:33:04.511Z,101460.31
2018-06-30T10:35:31.540Z,101469.52
2018-06-30T10:37:58.601Z,101455.95
2018-06-30T10:40:25.673Z,101457.12
2018-06-30T10:42:52.683Z,101452.33
2018-06-30T10:45:19.700Z,101458.70
2018-06-30T10:47:46.742Z,101453.70
2018-06-30T10:50:13.750Z,101453.22
2018-06-30T10:52:40.777Z,101450.78
2018-06-30T10:55:07.847Z,101452.95
2018-06-30T10:57:34.857Z,101455.03
2018-06-30T11:00:02.024Z,101452.70
2018-06-30T11:02:29.078Z,101447.98
2018-06-30T11:04:56.133Z,101445.31
2018-06-30T11:07:23.404Z,101448.70
2018-06-30T11:09:50.451Z,101448.73
2018-06-30T11:12:17.569Z,101441.27
2018-06-30T11:14:44.589Z,101439.45
2018-06-30T11:17:11.797Z,101435.81
2018-06-30T11:19:39.512Z,101439.53
2018-06-30T11:22:06.577Z,101441.13
2018-06-30T11:24:33.693Z,101440.70
2018-06-30T11:27:00.735Z,101439.64
2018-06-30T11:29:27.947Z,101436.80
2018-06-30T11:31:54.964Z,101441.63
2018-06-30T11:34:22.030Z,101437.98
2018-06-30T11:36:49.138Z,101433.45
2018-06-30T11:39:16.180Z,101430.36
2018-06-30T11:41:43.403Z,101434.83
2018-06-30T11:44:10.856Z,101427.30
2018-06-30T11:46:37.890Z,101426.34
2018-06-30T11:49:05.275Z,101430.91
2018-06-30T11:51:32.338Z,101422.58
2018-06-30T11:53:59.370Z,101419.84
2018-06-30T11:56:26.483Z,101420.45
2018-06-30T11:58:53.549Z,101415.38
2018-06-30T12:01:20.589Z,101422.12
2018-06-30T12:03:47.621Z,101413.03
2018-06-30T12:06:14.725Z,101403.78
2018-06-30T12:08:41.744Z,101408.06
2018-06-30T12:11:08.891Z,101411.47
2018-06-30T12:13:35.971Z,101414.55
2018-06-30T12:16:03.141Z,101420.82
2018-06-30T12:18:30.191Z,101415.25
2018-06-30T12:20:57.220Z,101415.52
2018-06-30T12:23:24.333Z,101408.84
2018-06-30T12:25:51.371Z,101407.17
2018-06-30T12:28:18.399Z,101409.97
2018-06-30T12:30:45.409Z,101407.07
2018-06-30T12:33:12.484Z,101403.95
2018-06-30T12:35:39.479Z,101407.09
2018-06-30T12:38:06.508Z,101399.68
2018-06-30T12:40:33.613Z,101409.84
2018-06-30T12:43:00.641Z,101402.20
2018-06-30T12:45:28.273Z,101396.98
2018-06-30T12:47:55.287Z,101390.05
2018-06-30T12:50:22.313Z,101391.80
2018-06-30T12:52:49.901Z,101390.59
2018-06-30T12:55:16.931Z,101391.41
2018-06-30T12:57:43.983Z,101386.95
2018-06-30T13:00:11.021Z,101381.00
2018-06-30T13:02:38.016Z,101383.61
2018-06-30T13:05:05.135Z,101374.62
2018-06-30T13:07:32.217Z,101381.34
2018-06-30T13:09:59.221Z,101388.69
2018-06-30T13:12:26.491Z,101386.10
2018-06-30T13:14:53.526Z,101387.77
2018-06-30T13:17:20.572Z,101388.56
2018-06-30T13:19:47.763Z,101383.17
2018-06-30T13:22:14.811Z,101386.95
2018-06-30T13:24:42.192Z,101383.08
2018-06-30T13:27:09.231Z,101378.42
2018-06-30T13:29:36.416Z,101378.98
2018-06-30T13:32:03.585Z,101382.34
2018-06-30T13:34:30.764Z,101375.55
2018-06-30T13:36:57.725Z,101378.62
2018-06-30T13:39:24.742Z,101381.20
2018-06-30T13:41:51.885Z,101384.09
2018-06-30T13:44:18.905Z,101384.34
2018-06-30T13:46:45.956Z,101387.55
2018-06-30T13:49:12.981Z,101383.92
2018-06-30T13:51:40.008Z,101378.13
2018-06-30T13:54:07.404Z,101378.68
2018-06-30T13:56:34.449Z,101386.77
2018-06-30T13:59:01.500Z,101374.23
2018-06-30T14:01:28.517Z,101371.71
2018-06-30T14:03:55.633Z,101377.72
2018-06-30T14:06:22.654Z,101377.19
2018-06-30T14:08:49.696Z,101378.14
2018-06-30T14:11:16.812Z,101374.52
2018-06-30T14:13:43.919Z,101375.84
2018-06-30T14:16:10.991Z,101376.02
2018-06-30T14:18:38.187Z,101380.13
2018-06-30T14:21:05.193Z,101371.02
2018-06-30T14:23:32.283Z,101370.23
2018-06-30T14:25:59.298Z,101371.27
2018-06-30T14:28:26.606Z,101370.00
2018-06-30T14:30:53.621Z,101362.13
2018-06-30T14:33:20.661Z,101362.13
2018-06-30T14:35:47.697Z,101364.39
2018-06-30T14:38:14.741Z,101362.06
2018-06-30T14:40:41.904Z,101369.29
2018-06-30T14:43:08.942Z,101362.86
2018-06-30T14:45:35.957Z,101358.41
2018-06-30T14:48:03.079Z,101361.10
2018-06-30T14:50:30.157Z,101357.29
2018-06-30T14:52:57.173Z,101352.45
2018-06-30T14:55:24.199Z,101355.64
2018-06-30T14:57:51.216Z,101367.77
2018-06-30T15:00:18.330Z,101359.05
2018-06-30T15:02:45.457Z,101363.44
2018-06-30T15:05:12.493Z,101357.30
2018-06-30T15:07:39.548Z,101349.72
2018-06-30T15:10:07.218Z,101352.17
2018-06-30T15:12:34.376Z,101347.11
2018-06-30T15:15:01.438Z,101342.22
2018-06-30T15:17:28.453Z,101347.94
2018-06-30T15:19:55.511Z,101347.38
2018-06-30T15:22:22.558Z,101344.43
2018-06-30T15:24:49.598Z,101336.41
2018-06-30T15:27:16.673Z,101335.13
2018-06-30T15:29:43.700Z,101334.15
2018-06-30T15:32:10.803Z,101332.14
2018-06-30T15:34:37.914Z,101331.31
2018-06-30T15:37:04.973Z,101332.28
2018-06-30T15:39:32.066Z,101328.82
2018-06-30T15:41:59.340Z,101333.88
2018-06-30T15:44:26.395Z,101333.76
2018-06-30T15:46:53.437Z,101328.73
2018-06-30T15:49:20.458Z,101328.86
2018-06-30T15:51:47.537Z,101327.67
2018-06-30T15:54:14.581Z,101326.31
2018-06-30T15:56:41.595Z,101325.06
2018-06-30T15:59:08.644Z,101322.38
2018-06-30T16:01:35.745Z,101326.52
2018-06-30T16:06:42.177Z,101321.73
2018-06-30T16:09:10.472Z,101318.89
2018-06-30T16:11:44.464Z,101322.36
2018-06-30T16:14:11.515Z,101323.68
2018-06-30T16:16:39.098Z,101323.05
2018-06-30T16:19:06.313Z,101321.26
2018-06-30T16:21:33.340Z,101327.20
2018-06-30T16:29:12.973Z,101317.02
2018-06-30T16:31:40.023Z,101319.30
2018-06-30T16:34:07.043Z,101323.41
2018-06-30T16:36:34.076Z,101316.78
2018-06-30T16:39:01.129Z,101315.30
2018-06-30T16:41:28.157Z,101316.69
2018-06-30T16:43:55.375Z,101320.09
2018-06-30T16:46:23.997Z,101321.05
2018-06-30T16:48:51.096Z,101320.73
2018-06-30T16:51:18.116Z,101315.73
2018-06-30T16:53:45.711Z,101319.72
2018-06-30T16:56:12.737Z,101316.98
2018-06-30T16:58:39.780Z,101320.64
2018-06-30T17:01:06.809Z,101316.75
2018-06-30T17:03:34.227Z,101317.94
2018-06-30T17:06:01.271Z,101315.97
2018-06-30T17:08:28.583Z,101312.90
2018-06-30T17:10:56.837Z,101319.83
2018-06-30T17:17:30.614Z,101322.88
2018-06-30T17:19:57.675Z,101316.12
2018-06-30T17:22:24.734Z,101313.12
2018-06-30T17:24:51.894Z,101320.32
2018-06-30T17:27:18.965Z,101312.63
2018-06-30T17:29:46.005Z,101322.79
2018-06-30T17:32:13.026Z,101322.23
2018-06-30T17:34:40.061Z,101326.46
2018-06-30T17:37:07.086Z,101318.89
2018-06-30T17:39:34.155Z,101321.05
2018-06-30T17:42:01.327Z,101321.98
2018-06-30T17:44:28.405Z,101323.34
2018-06-30T17:46:55.476Z,101322.58
2018-06-30T17:49:22.578Z,101322.78
2018-06-30T17:51:50.653Z,101324.02
2018-06-30T17:54:17.757Z,101321.91
2018-06-30T17:56:44.805Z,101325.46
2018-06-30T17:59:11.876Z,101330.97
2018-06-30T18:01:39.004Z,101334.16
2018-06-30T18:04:06.468Z,101333.22
2018-06-30T18:06:33.685Z,101330.47
2018-06-30T18:09:00.741Z,101335.28
2018-06-30T18:11:28.212Z,101329.03
2018-06-30T18:13:55.246Z,101329.69
2018-06-30T18:16:22.305Z,101335.55
2018-06-30T18:18:49.389Z,101331.94
2018-06-30T18:21:16.746Z,101327.03
2018-06-30T18:23:43.878Z,101333.00
2018-06-30T18:26:10.886Z,101336.89
2018-06-30T18:28:37.913Z,101333.09
2018-06-30T18:31:04.928Z,101345.92
2018-06-30T18:33:33.182Z,101343.93
2018-06-30T18:36:00.672Z,101343.81
2018-06-30T18:38:27.725Z,101343.44
2018-06-30T18:40:55.081Z,101351.30
2018-06-30T18:43:22.146Z,101338.34
2018-06-30T18:45:49.155Z,101346.09
2018-06-30T18:48:16.507Z,101347.37
2018-06-30T18:50:43.546Z,101356.05
2018-06-30T18:53:10.958Z,101349.69
2018-06-30T18:55:38.045Z,101357.22
2018-06-30T18:58:06.188Z,101352.74
2018-06-30T19:00:33.234Z,101348.50
2018-06-30T19:03:00.509Z,101355.23
2018-06-30T19:05:27.892Z,101356.47
2018-06-30T19:07:55.133Z,101361.92
2018-06-30T19:10:22.425Z,101358.62
2018-06-30T19:12:49.602Z,101368.48
2018-06-30T19:15:17.015Z,101363.58
2018-06-30T19:17:44.027Z,101369.09
2018-06-30T19:20:11.188Z,101370.64
2018-06-30T19:22:38.596Z,101375.91
2018-06-30T19:25:05.704Z,101380.63
2018-06-30T19:27:32.745Z,101385.79
2018-06-30T19:29:59.738Z,101383.39
2018-06-30T19:32:27.154Z,101381.12
2018-06-30T19:34:54.419Z,101384.08
2018-06-30T19:37:21.454Z,101383.89
2018-06-30T19:39:48.594Z,101387.83
2018-06-30T19:43:04.195Z,101385.43
2018-06-30T19:45:31.283Z,101382.25
2018-06-30T19:47:58.277Z,101391.31
2018-06-30T19:50:25.761Z,101388.69
2018-06-30T19:52:52.798Z,101392.72
2018-06-30T19:55:19.819Z,101396.73
2018-06-30T19:57:46.825Z,101396.34
2018-06-30T20:00:14.359Z,101397.94
2018-06-30T20:02:41.390Z,101404.77
2018-06-30T20:05:08.596Z,101405.47
2018-06-30T20:07:41.352Z,101403.41
2018-06-30T20:10:08.414Z,101401.48
2018-06-30T20:12:35.729Z,101406.50
2018-06-30T20:15:02.834Z,101409.13
2018-06-30T20:17:30.258Z,101407.77
2018-06-30T20:19:57.327Z,101404.70
2018-06-30T20:22:24.440Z,101400.17
2018-06-30T20:24:53.389Z,101404.22
2018-06-30T20:27:20.689Z,101401.14
2018-06-30T20:29:47.822Z,101404.49
2018-06-30T20:32:14.860Z,101404.91
2018-06-30T20:34:42.293Z,101404.62
2018-06-30T20:37:09.350Z,101402.52
2018-06-30T20:39:36.458Z,101404.52
2018-06-30T20:42:03.469Z,101402.34
2018-06-30T20:44:30.690Z,101402.66
2018-06-30T20:46:57.769Z,101403.97
2018-06-30T20:49:25.079Z,101405.92
2018-06-30T20:51:52.116Z,101408.38
2018-06-30T20:57:22.110Z,101404.80
2018-06-30T20:59:49.497Z,101402.98
2018-06-30T21:02:16.538Z,101408.48
2018-06-30T21:04:43.981Z,101405.16
2018-06-30T21:07:11.542Z,101411.52
2018-06-30T21:09:38.565Z,101409.97
2018-06-30T21:12:05.653Z,101411.45
2018-06-30T21:14:32.741Z,101410.98
2018-06-30T21:17:00.102Z,101410.89
2018-06-30T21:22:01.891Z,101412.16
2018-06-30T21:24:28.964Z,101414.44
2018-06-30T21:26:56.003Z,101414.84
2018-06-30T21:29:23.317Z,101413.80
2018-06-30T21:31:50.682Z,101414.20
2018-06-30T21:34:18.003Z,101411.77
2018-06-30T21:36:45.077Z,101407.73
2018-06-30T21:39:12.886Z,101417.11
2018-06-30T21:41:40.653Z,101414.52
2018-06-30T21:44:08.091Z,101418.56
2018-06-30T21:46:35.346Z,101422.91
2018-06-30T21:49:02.426Z,101428.42
2018-06-30T21:51:29.676Z,101438.02
2018-06-30T21:53:57.086Z,101431.47
2018-06-30T21:56:24.211Z,101429.43
2018-06-30T21:58:51.892Z,101431.78
2018-06-30T22:01:24.488Z,101431.77
2018-06-30T22:03:52.567Z,101431.38
2018-06-30T22:06:19.746Z,101436.95
2018-06-30T22:08:47.074Z,101435.12
2018-06-30T22:11:15.085Z,101438.12
2018-06-30T22:13:42.421Z,101432.59
2018-06-30T22:16:09.517Z,101435.48
2018-06-30T22:18:36.844Z,101434.87
2018-06-30T22:21:03.951Z,101434.52
2018-06-30T22:23:31.001Z,101432.59
2018-06-30T22:25:58.202Z,101442.17
2018-06-30T22:28:25.643Z,101434.17
2018-06-30T22:30:52.680Z,101442.67
2018-06-30T22:33:19.699Z,101436.58
2018-06-30T22:35:47.016Z,101430.89
2018-06-30T22:38:14.444Z,101441.03
2018-06-30T22:40:41.684Z,101441.53
2018-06-30T22:43:08.746Z,101441.83
2018-06-30T22:45:35.768Z,101439.61
2018-06-30T22:48:03.181Z,101441.19
2018-06-30T22:50:30.213Z,101445.45
2018-06-30T22:52:57.256Z,101446.98
2018-06-30T22:55:24.342Z,101443.41
2018-06-30T22:57:51.356Z,101444.78
2018-06-30T23:00:18.692Z,101452.77
2018-06-30T23:02:45.714Z,101451.34
2018-06-30T23:05:12.781Z,101450.92
2018-06-30T23:07:39.793Z,101452.61
2018-06-30T23:10:06.885Z,101451.85
2018-06-30T23:12:33.972Z,101448.20
2018-06-30T23:15:00.969Z,101450.24
2018-06-30T23:17:27.998Z,101455.64
2018-06-30T23:19:55.409Z,101458.00
2018-06-30T23:22:40.390Z,101453.74
2018-06-30T23:25:07.418Z,101463.20
2018-06-30T23:27:34.453Z,101466.56
2018-06-30T23:30:01.531Z,101467.03
2018-06-30T23:32:28.561Z,101462.60
2018-06-30T23:34:55.653Z,101465.04
2018-06-30T23:37:22.937Z,101459.73
2018-06-30T23:39:49.986Z,101464.47
2018-06-30T23:42:16.995Z,101468.27
2018-06-30T23:44:44.017Z,101461.64
2018-06-30T23:47:11.020Z,101464.14
2018-06-30T23:49:38.042Z,101466.09
2018-06-30T23:52:05.173Z,101466.92
2018-06-30T23:54:32.169Z,101476.06
2018-06-30T23:56:59.182Z,101471.45
2018-06-30T23:59:26.178Z,101477.78
